Time;durP1;ratioP1;P1;durP2;ratioP2;P2;SDS_P1;SDS_P2;PMS_P1;PMS_P2;Temp;Humidity;BMP_temperature;BMP_pressure;BME280_temperature;BME280_humidity;BME280_pressure;Samples;Min_cycle;Max_cycle;Signal;HPM_P1;HPM_P2
2022/03/21 00:01:10;;;;;;;16.80;12.10;;;;;;;9.09;69.78;100394.28;5008064;28;20191;-77
2022/03/21 00:03:40;;;;;;;16.57;11.83;;;;;;;9.05;69.44;100391.81;5004555;28;20191;-78
2022/03/21 00:06:10;;;;;;;16.23;12.30;;;;;;;8.93;69.66;100400.22;5006976;28;20232;-78
2022/03/21 00:08:39;;;;;;;19.90;11.93;;;;;;;9.00;69.44;100405.22;5007697;28;20198;-78
2022/03/21 00:11:07;;;;;;;16.80;12.00;;;;;;;9.06;69.00;100410.25;5015307;28;20202;-78
2022/03/21 00:13:36;;;;;;;18.07;11.93;;;;;;;9.04;68.77;100412.09;5026453;28;20201;-78
2022/03/21 00:16:04;;;;;;;15.00;11.27;;;;;;;9.03;68.52;100418.31;5066068;28;20231;-78
2022/03/21 00:18:34;;;;;;;17.33;11.77;;;;;;;9.00;68.79;100417.56;5055238;28;20249;-78
2022/03/21 00:21:02;;;;;;;16.50;11.63;;;;;;;8.90;68.75;100417.03;5054017;28;20228;-78
2022/03/21 00:23:34;;;;;;;19.63;12.30;;;;;;;8.98;68.78;100416.78;5046971;28;20201;-78
2022/03/21 00:26:03;;;;;;;15.77;11.70;;;;;;;9.01;68.37;100414.00;5075010;28;20204;-77
2022/03/21 00:28:34;;;;;;;15.80;11.37;;;;;;;8.90;68.80;100417.03;5076149;28;20228;-77
2022/03/21 00:31:04;;;;;;;17.57;12.03;;;;;;;8.88;68.57;100414.47;5001591;28;20726;-77
2022/03/21 00:33:33;;;;;;;15.73;11.83;;;;;;;8.80;69.01;100427.09;5025669;28;20217;-78
2022/03/21 00:36:02;;;;;;;19.00;11.90;;;;;;;8.78;69.50;100431.56;5032366;28;20240;-78
2022/03/21 00:38:30;;;;;;;17.57;11.73;;;;;;;8.75;69.86;100430.81;5029282;28;20217;-78
2022/03/21 00:41:01;;;;;;;14.87;11.83;;;;;;;8.57;70.24;100433.16;5030933;28;20225;-78
2022/03/21 00:43:30;;;;;;;15.00;10.70;;;;;;;8.66;70.78;100436.41;5026672;28;20194;-78
2022/03/21 00:45:59;;;;;;;15.33;11.40;;;;;;;8.62;70.84;100434.81;5025972;28;20368;-78
2022/03/21 00:48:29;;;;;;;16.37;11.27;;;;;;;8.57;71.23;100427.88;5031610;28;20257;-78
2022/03/21 00:50:59;;;;;;;16.17;11.57;;;;;;;8.45;71.79;100425.69;5029714;28;20205;-77
2022/03/21 00:53:27;;;;;;;15.03;10.93;;;;;;;8.42;72.83;100424.94;5028673;28;20649;-78
2022/03/21 00:55:56;;;;;;;15.73;12.00;;;;;;;8.47;73.63;100420.34;5026056;28;20209;-79
2022/03/21 00:58:28;;;;;;;17.43;11.60;;;;;;;8.41;74.41;100421.44;5031432;28;20222;-79
2022/03/21 01:00:56;;;;;;;16.10;11.17;;;;;;;8.28;74.79;100420.94;5034236;28;20190;-79
2022/03/21 01:03:25;;;;;;;18.10;12.03;;;;;;;8.10;76.04;100426.00;5036981;28;20240;-79
2022/03/21 01:05:55;;;;;;;18.10;11.40;;;;;;;8.06;76.62;100425.25;5035977;28;20228;-79
2022/03/21 01:08:24;;;;;;;15.97;11.43;;;;;;;7.98;77.14;100414.94;5004170;28;20245;-78
2022/03/21 01:10:52;;;;;;;16.50;11.90;;;;;;;8.00;77.41;100421.00;4975409;28;20677;-79
2022/03/21 01:13:21;;;;;;;16.43;11.90;;;;;;;7.99;77.84;100423.72;4979542;28;20249;-79
2022/03/21 01:15:51;;;;;;;17.77;12.27;;;;;;;7.94;78.17;100423.00;4971709;28;20262;-79
2022/03/21 01:18:22;;;;;;;17.40;10.70;;;;;;;7.95;79.23;100420.31;4978309;28;20717;-79
2022/03/21 01:20:52;;;;;;;14.07;10.97;;;;;;;7.84;80.29;100425.09;4971653;28;20207;-78
2022/03/21 01:23:20;;;;;;;16.43;11.80;;;;;;;7.58;83.32;100422.41;4978277;28;20242;-79
2022/03/21 01:25:49;;;;;;;16.67;12.07;;;;;;;7.40;86.59;100437.88;4969731;28;20200;-78
2022/03/21 01:28:17;;;;;;;17.10;10.87;;;;;;;7.39;87.49;100436.16;4970807;28;20270;-79
2022/03/21 01:30:46;;;;;;;17.80;12.00;;;;;;;7.27;88.44;100431.25;4972321;28;20199;-78
2022/03/21 01:33:15;;;;;;;16.93;11.57;;;;;;;7.31;89.66;100443.44;4966862;28;20203;-79
2022/03/21 01:35:44;;;;;;;19.00;12.63;;;;;;;7.29;89.71;100437.34;4970691;28;20214;-79
2022/03/21 01:38:12;;;;;;;17.40;11.93;;;;;;;7.35;89.54;100433.69;4976145;28;20220;-79
2022/03/21 01:40:41;;;;;;;16.37;12.00;;;;;;;7.44;89.48;100423.72;4982786;28;20272;-79
2022/03/21 01:43:11;;;;;;;14.87;11.43;;;;;;;7.39;90.93;100436.16;5002208;28;20202;-79
2022/03/21 01:45:41;;;;;;;15.53;11.83;;;;;;;7.42;90.58;100429.91;5002356;28;20199;-78
2022/03/21 01:48:10;;;;;;;17.20;11.90;;;;;;;7.64;88.79;100427.50;5003228;28;20198;-78
2022/03/21 01:50:40;;;;;;;17.10;11.53;;;;;;;7.49;87.23;100428.84;5008373;28;20203;-79
2022/03/21 01:56:08;;;;;;;14.77;10.87;;;;;;;7.23;86.39;100426.97;4968741;28;20234;-79
2022/03/21 01:58:37;;;;;;;15.10;11.13;;;;;;;7.07;89.46;100431.84;4998577;28;20279;-78
2022/03/21 02:01:05;;;;;;;17.20;11.13;;;;;;;7.05;90.38;100420.50;5001493;28;20207;-79
2022/03/21 02:03:34;;;;;;;14.43;11.40;;;;;;;7.25;90.25;100435.72;5000639;28;20199;-79
2022/03/21 02:06:04;;;;;;;15.47;11.60;;;;;;;7.17;92.65;100441.22;5001589;28;20203;-78
2022/03/21 02:08:33;;;;;;;16.47;11.50;;;;;;;7.06;91.40;100438.03;5030985;28;20297;-78
2022/03/21 02:11:02;;;;;;;16.13;11.83;;;;;;;7.18;89.41;100432.41;5027826;28;20190;-78
2022/03/21 02:13:31;;;;;;;15.23;10.83;;;;;;;7.20;86.38;100431.50;5024420;28;20190;-79
2022/03/21 02:16:00;;;;;;;14.30;10.43;;;;;;;7.37;83.56;100427.44;5027852;28;20228;-79
2022/03/21 02:18:30;;;;;;;16.73;10.87;;;;;;;7.28;82.94;100429.50;5025555;28;20241;-79
2022/03/21 02:21:01;;;;;;;15.40;10.90;;;;;;;7.07;86.81;100438.91;5024550;28;20212;-79
2022/03/21 02:23:38;;;;;;;15.63;12.00;;;;;;;6.93;92.70;100441.91;5025357;28;20197;-79
2022/03/21 02:26:11;;;;;;;15.50;11.07;;;;;;;6.81;94.41;100431.72;5025667;28;20202;-79
2022/03/21 02:28:42;;;;;;;14.70;10.73;;;;;;;6.75;96.94;100435.38;5031800;28;20214;-79
2022/03/21 02:31:10;;;;;;;16.63;11.00;;;;;;;6.88;95.32;100426.25;5030665;28;20190;-78
2022/03/21 02:33:40;;;;;;;16.07;10.93;;;;;;;6.89;92.64;100432.38;5028383;28;20193;-79
2022/03/21 02:36:09;;;;;;;14.70;10.90;;;;;;;6.66;93.28;100440.94;5028003;28;20191;-78
2022/03/21 02:38:39;;;;;;;16.43;11.17;;;;;;;6.62;96.34;100433.16;5024365;28;20288;-78
2022/03/21 02:41:07;;;;;;;13.80;10.67;;;;;;;6.59;96.85;100428.84;4991388;28;20235;-79
2022/03/21 02:43:53;;;;;;;14.87;10.70;;;;;;;6.74;96.58;100435.44;5022085;28;20268;-79
2022/03/21 02:46:22;;;;;;;15.10;11.17;;;;;;;6.69;96.18;100432.09;4996147;28;20203;-79
2022/03/21 02:48:51;;;;;;;15.97;11.33;;;;;;;6.64;96.10;100431.31;4991528;28;20282;-79
2022/03/21 02:51:21;;;;;;;13.50;10.90;;;;;;;6.73;96.50;100425.81;4999057;28;20207;-79
2022/03/21 02:53:51;;;;;;;16.57;11.03;;;;;;;6.66;95.73;100430.41;5005615;28;20639;-79
2022/03/21 02:56:22;;;;;;;16.17;10.97;;;;;;;6.57;97.64;100439.41;5001931;28;20286;-79
2022/03/21 02:58:51;;;;;;;14.07;10.67;;;;;;;6.57;98.41;100435.91;4999659;28;20218;-79
2022/03/21 03:01:22;;;;;;;14.07;11.03;;;;;;;6.41;100.00;100430.19;5001624;28;20240;-79
2022/03/21 03:03:51;;;;;;;15.20;11.57;;;;;;;6.34;99.54;100433.00;5001061;28;20639;-79
2022/03/21 03:06:19;;;;;;;15.87;11.00;;;;;;;6.27;99.33;100442.81;5003619;28;20273;-79
2022/03/21 03:08:48;;;;;;;13.30;9.80;;;;;;;6.24;99.71;100442.91;4996152;28;20203;-79
2022/03/21 03:11:16;;;;;;;14.07;10.33;;;;;;;6.30;99.56;100441.00;4993960;28;20229;-79
2022/03/21 03:13:45;;;;;;;14.07;10.60;;;;;;;6.48;97.28;100446.69;4999415;28;20201;-79
2022/03/21 03:16:13;;;;;;;18.97;11.20;;;;;;;6.48;97.05;100447.56;5000743;28;20191;-78
2022/03/21 03:18:44;;;;;;;16.23;10.87;;;;;;;6.35;97.78;100451.38;5001006;28;20219;-78
2022/03/21 03:21:19;;;;;;;15.77;10.97;;;;;;;6.39;97.96;100446.94;5000946;28;20207;-79
2022/03/21 03:23:50;;;;;;;14.53;10.83;;;;;;;6.37;98.14;100449.59;4986436;28;20194;-79
2022/03/21 03:26:19;;;;;;;13.67;10.33;;;;;;;6.21;99.14;100459.66;4991838;28;20222;-79
2022/03/21 03:28:47;;;;;;;15.90;11.17;;;;;;;6.20;99.21;100457.06;4991776;28;20210;-79
2022/03/21 03:31:18;;;;;;;15.00;10.57;;;;;;;6.37;97.07;100465.41;4983063;28;20203;-79
2022/03/21 03:33:49;;;;;;;14.23;10.50;;;;;;;6.48;96.74;100465.13;4985077;28;20315;-79
2022/03/21 03:36:19;;;;;;;16.03;10.60;;;;;;;6.54;95.86;100465.78;4932154;29;20205;-79
2022/03/21 03:38:48;;;;;;;13.97;10.13;;;;;;;6.50;94.81;100464.16;4924919;29;20200;-79
2022/03/21 03:41:16;;;;;;;15.07;10.93;;;;;;;6.29;97.19;100465.59;4929283;29;20261;-79
2022/03/21 03:43:47;;;;;;;15.57;11.53;;;;;;;6.31;98.13;100466.41;4929678;29;20605;-79
2022/03/21 03:46:16;;;;;;;14.93;10.73;;;;;;;6.30;98.12;100456.78;4929840;29;20312;-79
2022/03/21 03:48:46;;;;;;;15.53;10.93;;;;;;;6.36;97.72;100468.91;4982490;28;20193;-79
2022/03/21 03:51:17;;;;;;;13.33;10.17;;;;;;;6.28;96.03;100471.75;5007674;28;20202;-79
2022/03/21 03:53:45;;;;;;;13.33;10.50;;;;;;;6.25;95.31;100476.22;5005734;28;20722;-79
2022/03/21 03:56:14;;;;;;;13.57;9.80;;;;;;;6.23;94.87;100468.38;5064666;28;20193;-78
2022/03/21 03:58:42;;;;;;;12.90;10.13;;;;;;;6.24;95.48;100466.59;5073035;28;20195;-79
2022/03/21 04:01:11;;;;;;;15.10;9.70;;;;;;;6.42;94.48;100470.53;5077141;28;20196;-80
2022/03/21 04:03:46;;;;;;;14.03;10.07;;;;;;;6.37;92.92;100469.75;5074550;28;20196;-79
2022/03/21 04:06:18;;;;;;;14.83;10.43;;;;;;;6.31;91.96;100463.78;5076425;28;20196;-78
2022/03/21 04:08:48;;;;;;;14.53;9.70;;;;;;;6.32;89.57;100464.63;5070830;28;20222;-78
2022/03/21 04:11:16;;;;;;;14.47;10.17;;;;;;;6.26;88.39;100465.63;5076551;28;20188;-79
2022/03/21 04:13:46;;;;;;;13.57;9.50;;;;;;;6.19;87.80;100469.34;5033014;28;20201;-78
2022/03/21 04:16:16;;;;;;;15.23;10.13;;;;;;;5.99;93.98;100467.22;5034228;28;20198;-79
2022/03/21 04:18:44;;;;;;;14.33;9.97;;;;;;;5.85;96.64;100463.13;5034143;28;20217;-79
2022/03/21 04:21:27;;;;;;;14.97;10.17;;;;;;;5.91;95.92;100471.78;5033396;28;20244;-79
2022/03/21 04:23:56;;;;;;;16.33;10.80;;;;;;;5.85;96.05;100478.91;5025311;28;20220;-78
2022/03/21 04:26:26;;;;;;;13.07;9.57;;;;;;;5.93;95.38;100467.34;5031345;28;20217;-79
2022/03/21 04:28:56;;;;;;;12.93;9.23;;;;;;;6.09;92.69;100470.50;5024772;28;20256;-78
2022/03/21 04:31:25;;;;;;;14.43;9.67;;;;;;;6.09;90.13;100465.22;5038503;28;20192;-79
2022/03/21 04:33:53;;;;;;;13.73;10.43;;;;;;;6.07;89.82;100466.13;5078469;28;20199;-78
2022/03/21 04:36:27;;;;;;;13.07;9.50;;;;;;;5.96;90.48;100474.28;5074548;28;20195;-78
2022/03/21 04:38:56;;;;;;;17.30;10.43;;;;;;;5.79;91.15;100477.31;5072900;28;20704;-79
2022/03/21 04:41:25;;;;;;;17.43;10.60;;;;;;;5.55;96.71;100480.47;5026717;28;20288;-79
2022/03/21 04:43:53;;;;;;;15.03;10.73;;;;;;;5.40;100.00;100484.28;5002825;28;20207;-79
2022/03/21 04:46:21;;;;;;;14.77;10.67;;;;;;;4.77;100.00;100482.97;5003421;28;20195;-79
2022/03/21 04:48:50;;;;;;;16.73;11.10;;;;;;;4.76;100.00;100485.63;5000160;28;20195;-79
2022/03/21 04:51:19;;;;;;;13.70;10.57;;;;;;;4.87;100.00;100495.00;5005586;28;20201;-79
2022/03/21 04:53:50;;;;;;;16.27;11.30;;;;;;;4.89;100.00;100498.47;4992004;28;20212;-79
2022/03/21 04:56:18;;;;;;;16.10;10.57;;;;;;;4.98;100.00;100502.69;5003065;28;20822;-78
2022/03/21 04:58:46;;;;;;;15.63;9.80;;;;;;;5.09;100.00;100495.44;5001606;28;20234;-78
2022/03/21 05:01:15;;;;;;;14.97;9.83;;;;;;;5.20;100.00;100504.88;4993234;28;20223;-79
2022/03/21 05:03:44;;;;;;;15.40;10.70;;;;;;;5.24;100.00;100499.53;5005901;28;20308;-79
2022/03/21 05:06:14;;;;;;;15.23;10.50;;;;;;;5.16;100.00;100501.44;5003339;28;20207;-79
2022/03/21 05:08:42;;;;;;;15.60;10.50;;;;;;;5.28;100.00;100497.69;4992214;28;20230;-79
2022/03/21 05:11:12;;;;;;;16.20;10.30;;;;;;;5.27;100.00;100494.22;5002584;28;20199;-78
2022/03/21 05:13:40;;;;;;;16.47;11.43;;;;;;;5.42;100.00;100501.78;5003487;28;20237;-79
2022/03/21 05:16:09;;;;;;;16.20;11.27;;;;;;;5.34;100.00;100506.31;5004132;28;20210;-78
2022/03/21 05:18:37;;;;;;;21.10;13.43;;;;;;;5.13;100.00;100509.41;5006634;28;20375;-78
2022/03/21 05:21:07;;;;;;;16.60;11.27;;;;;;;5.18;100.00;100518.03;5003151;28;20215;-79
2022/03/21 05:32:06;;;;;;;15.27;10.37;;;;;;;5.25;100.00;100517.03;4993152;28;20228;-79
2022/03/21 05:37:21;;;;;;;13.00;9.77;;;;;;;5.28;100.00;100518.72;5052107;28;20200;-79
2022/03/21 05:42:44;;;;;;;20.37;12.70;;;;;;;5.28;100.00;100530.09;4894964;28;20206;-78
2022/03/21 05:45:19;;;;;;;23.03;15.37;;;;;;;5.27;100.00;100528.34;4914473;29;20194;-79
2022/03/21 05:50:37;;;;;;;22.77;15.73;;;;;;;5.03;100.00;100540.22;4932518;29;20212;-79
2022/03/21 05:53:08;;;;;;;23.60;17.97;;;;;;;4.96;100.00;100537.75;4933259;28;20204;-79
2022/03/21 05:55:37;;;;;;;22.13;16.97;;;;;;;5.14;100.00;100534.75;4932563;29;20193;-78
2022/03/21 05:58:08;;;;;;;19.73;14.53;;;;;;;5.03;100.00;100536.72;4930594;29;20189;-78
2022/03/21 06:00:40;;;;;;;20.03;15.20;;;;;;;5.15;100.00;100544.38;4919963;28;20231;-79
2022/03/21 06:03:10;;;;;;;18.93;14.47;;;;;;;5.22;100.00;100553.88;4971636;28;20212;-78
2022/03/21 06:05:40;;;;;;;19.17;13.90;;;;;;;5.15;100.00;100549.63;4932175;28;20207;-78
2022/03/21 06:08:09;;;;;;;19.63;13.93;;;;;;;5.07;100.00;100548.91;4952044;28;20246;-78
2022/03/21 06:10:37;;;;;;;19.17;12.93;;;;;;;5.04;100.00;100559.47;4951505;28;20201;-79
2022/03/21 06:13:07;;;;;;;24.00;12.37;;;;;;;5.07;100.00;100551.53;5072156;28;20204;-78
2022/03/21 06:15:40;;;;;;;17.93;13.57;;;;;;;5.21;100.00;100548.63;5023863;28;20643;-79
2022/03/21 06:18:13;;;;;;;21.40;14.67;;;;;;;5.28;100.00;100553.72;5006847;28;20204;-79
2022/03/21 06:20:42;;;;;;;19.83;12.37;;;;;;;5.45;100.00;100558.66;5072125;28;20212;-79
2022/03/21 06:23:12;;;;;;;19.03;13.43;;;;;;;5.56;100.00;100561.91;4990583;28;20202;-79
2022/03/21 06:25:40;;;;;;;16.23;11.80;;;;;;;5.65;100.00;100569.59;5009937;28;20200;-79
2022/03/21 06:28:10;;;;;;;22.03;13.93;;;;;;;5.67;100.00;100575.69;5009910;28;20252;-79
2022/03/21 06:30:39;;;;;;;17.93;12.47;;;;;;;5.42;100.00;100571.84;5012070;28;20323;-79
2022/03/21 06:33:10;;;;;;;18.20;11.87;;;;;;;5.39;100.00;100577.16;5011168;28;20197;-78
2022/03/21 06:35:38;;;;;;;21.27;13.20;;;;;;;5.23;100.00;100573.97;5008570;28;20206;-79
2022/03/21 06:38:10;;;;;;;24.93;15.00;;;;;;;5.11;100.00;100580.31;5009165;28;20200;-79
2022/03/21 06:40:38;;;;;;;19.47;12.57;;;;;;;5.37;100.00;100574.56;5012126;28;20237;-79
2022/03/21 06:43:11;;;;;;;30.60;18.40;;;;;;;5.44;100.00;100578.81;5027088;28;20197;-79
2022/03/21 06:45:39;;;;;;;32.40;18.47;;;;;;;5.44;100.00;100580.56;5031581;28;20209;-79
2022/03/21 06:48:10;;;;;;;25.57;14.73;;;;;;;5.42;100.00;100583.22;4989221;28;20253;-78
2022/03/21 06:50:39;;;;;;;20.93;13.87;;;;;;;5.26;100.00;100584.41;4977366;28;20230;-79
2022/03/21 06:53:07;;;;;;;19.83;13.37;;;;;;;4.93;100.00;100590.31;4974561;28;20191;-79
2022/03/21 06:55:35;;;;;;;17.97;12.97;;;;;;;4.86;100.00;100579.91;4969041;28;20207;-79
2022/03/21 06:58:04;;;;;;;17.03;12.57;;;;;;;5.15;100.00;100581.13;4970158;28;20202;-79
2022/03/21 07:00:34;;;;;;;17.77;12.97;;;;;;;5.27;100.00;100587.91;4971705;28;20667;-79
2022/03/21 07:03:04;;;;;;;19.30;12.43;;;;;;;5.26;100.00;100596.69;4979957;28;20298;-79
2022/03/21 07:05:36;;;;;;;24.83;15.67;;;;;;;5.26;100.00;100592.31;4973311;28;20203;-77
2022/03/21 07:08:05;;;;;;;61.57;34.60;;;;;;;5.49;100.00;100596.22;4975602;28;20192;-78
2022/03/21 07:10:34;;;;;;;47.27;28.07;;;;;;;5.56;100.00;100597.84;4975373;28;20206;-78
2022/03/21 07:13:04;;;;;;;33.37;19.47;;;;;;;5.63;100.00;100607.34;4968918;28;20199;-78
2022/03/21 07:15:34;;;;;;;64.83;35.93;;;;;;;5.69;100.00;100604.56;5010562;28;20198;-78
2022/03/21 07:18:02;;;;;;;110.53;55.57;;;;;;;6.03;100.00;100603.00;5007868;28;20195;-78
2022/03/21 07:20:32;;;;;;;50.57;30.17;;;;;;;6.19;100.00;100605.28;4978827;28;20202;-78
2022/03/21 07:23:03;;;;;;;29.90;18.67;;;;;;;6.32;100.00;100602.31;5009701;28;20205;-78
2022/03/21 07:25:32;;;;;;;20.43;11.67;;;;;;;6.45;97.67;100600.25;5003626;28;20206;-78
2022/03/21 07:28:00;;;;;;;16.50;10.50;;;;;;;6.59;92.03;100603.44;5005054;28;20610;-78
2022/03/21 07:30:28;;;;;;;17.23;11.57;;;;;;;6.70;88.40;100613.72;4969465;28;20199;-78
2022/03/21 07:33:03;;;;;;;19.20;12.00;;;;;;;6.89;86.25;100608.84;4956695;28;20351;-79
2022/03/21 07:35:32;;;;;;;18.90;11.90;;;;;;;7.04;83.81;100613.69;4929216;29;20231;-79
2022/03/21 07:38:00;;;;;;;15.20;10.60;;;;;;;7.16;81.45;100612.53;4930854;29;20260;-79
2022/03/21 07:40:30;;;;;;;15.07;10.33;;;;;;;7.28;79.74;100616.59;4929154;29;20678;-78
2022/03/21 07:42:58;;;;;;;13.93;9.97;;;;;;;7.46;77.50;100603.78;4915210;29;20241;-79
2022/03/21 07:48:14;;;;;;;15.30;10.50;;;;;;;7.73;74.60;100617.97;4927225;28;20215;-79
2022/03/21 07:50:42;;;;;;;14.40;10.63;;;;;;;7.80;73.70;100617.78;4957401;28;20254;-79
2022/03/21 07:53:10;;;;;;;14.67;10.43;;;;;;;7.73;73.01;100614.47;4944923;28;20204;-79
2022/03/21 07:55:39;;;;;;;14.57;11.50;;;;;;;7.93;73.94;100620.03;4954927;28;20254;-80
2022/03/21 07:58:08;;;;;;;15.83;10.50;;;;;;;7.91;73.26;100626.22;4953556;28;20238;-79
2022/03/21 08:00:36;;;;;;;12.17;9.60;;;;;;;8.12;74.42;100624.75;4966951;28;20230;-79
2022/03/21 08:03:05;;;;;;;15.73;10.43;;;;;;;8.31;74.29;100625.91;4961035;28;20739;-79
2022/03/21 08:05:35;;;;;;;16.67;10.90;;;;;;;8.41;70.53;100629.16;4960155;28;20254;-79
2022/03/21 08:08:04;;;;;;;14.73;10.07;;;;;;;8.48;68.20;100631.53;4950194;28;20200;-80
2022/03/21 08:10:32;;;;;;;13.67;10.10;;;;;;;8.51;67.51;100625.31;4967717;28;20196;-79
2022/03/21 08:13:02;;;;;;;12.73;9.90;;;;;;;8.62;66.91;100631.13;5054262;28;20189;-79
2022/03/21 08:15:30;;;;;;;15.53;10.37;;;;;;;8.83;64.36;100634.81;5051512;28;20205;-79
2022/03/21 08:18:03;;;;;;;12.97;9.90;;;;;;;8.67;63.06;100630.94;5033486;28;20224;-79
2022/03/21 08:20:34;;;;;;;13.87;9.70;;;;;;;8.65;63.46;100636.28;5051781;28;20189;-79
2022/03/21 08:23:07;;;;;;;14.93;10.87;;;;;;;8.57;62.81;100640.94;5047747;28;20331;-79
2022/03/21 08:25:36;;;;;;;12.53;9.73;;;;;;;8.57;62.42;100636.53;5051328;28;20211;-79
2022/03/21 08:28:05;;;;;;;14.27;9.73;;;;;;;8.84;61.78;100636.56;5051528;28;20189;-79
2022/03/21 08:30:36;;;;;;;15.00;10.30;;;;;;;8.92;60.96;100634.53;5030173;28;20211;-79
2022/03/21 08:33:07;;;;;;;12.67;9.73;;;;;;;9.10;60.16;100643.63;4954608;28;20643;-79
2022/03/21 08:35:36;;;;;;;16.97;11.27;;;;;;;9.27;61.09;100643.91;4951722;28;20196;-79
2022/03/21 08:38:09;;;;;;;14.23;10.27;;;;;;;9.38;60.62;100647.03;4997168;28;20212;-80
2022/03/21 08:40:39;;;;;;;14.10;10.27;;;;;;;9.46;59.65;100652.06;5033676;28;20204;-81
2022/03/21 08:43:09;;;;;;;16.17;10.93;;;;;;;9.42;59.85;100646.00;5069491;28;20216;-80
2022/03/21 08:45:40;;;;;;;18.53;10.53;;;;;;;9.41;59.58;100638.13;5070455;28;20200;-81
2022/03/21 08:48:11;;;;;;;14.90;10.73;;;;;;;9.57;60.28;100635.81;5069525;28;20204;-81
2022/03/21 08:50:41;;;;;;;14.47;10.70;;;;;;;9.70;59.80;100639.72;5073904;28;20279;-80
2022/03/21 08:53:11;;;;;;;18.47;10.40;;;;;;;9.54;57.23;100641.19;4987782;28;20203;-80
2022/03/21 08:55:40;;;;;;;16.57;10.73;;;;;;;9.78;57.04;100634.16;4989036;28;20689;-80
2022/03/21 08:58:08;;;;;;;14.00;9.93;;;;;;;10.19;57.33;100635.22;4932666;29;20201;-81
2022/03/21 09:00:40;;;;;;;16.53;11.27;;;;;;;9.99;56.02;100628.91;4935584;29;20193;-79
2022/03/21 09:03:10;;;;;;;15.00;10.90;;;;;;;10.20;55.68;100632.50;4931113;29;20220;-80
2022/03/21 09:05:46;;;;;;;13.53;10.13;;;;;;;10.11;55.07;100626.72;4935389;29;20198;-80
2022/03/21 09:08:18;;;;;;;13.17;10.40;;;;;;;9.91;55.92;100628.31;4946820;28;20243;-81
2022/03/21 09:10:50;;;;;;;14.80;10.73;;;;;;;10.25;55.74;100622.66;4963776;28;20197;-81
2022/03/21 09:13:21;;;;;;;13.70;10.80;;;;;;;10.50;54.81;100614.56;5031008;28;20194;-81
2022/03/21 09:15:51;;;;;;;14.17;10.47;;;;;;;10.71;55.04;100619.94;5022071;28;20234;-81
2022/03/21 09:18:19;;;;;;;15.93;10.67;;;;;;;10.93;55.26;100620.78;4997622;28;20203;-81
2022/03/21 09:20:48;;;;;;;15.30;10.90;;;;;;;11.01;54.51;100623.13;4999832;28;20206;-81
2022/03/21 09:23:18;;;;;;;13.43;10.50;;;;;;;11.21;54.08;100625.78;5000217;28;20219;-81
2022/03/21 09:25:47;;;;;;;15.10;11.07;;;;;;;11.31;53.75;100619.16;4999320;28;20203;-80
2022/03/21 09:28:17;;;;;;;16.20;11.10;;;;;;;11.12;53.04;100616.44;4984657;28;20203;-80
2022/03/21 09:30:46;;;;;;;13.00;10.50;;;;;;;11.19;53.86;100614.34;5005349;28;20207;-80
2022/03/21 09:33:16;;;;;;;13.27;10.50;;;;;;;11.17;53.92;100621.50;5002412;28;20205;-80
2022/03/21 09:35:47;;;;;;;14.13;10.70;;;;;;;11.38;53.99;100620.56;5004306;28;20270;-81
2022/03/21 09:38:18;;;;;;;13.43;10.60;;;;;;;11.76;52.46;100618.00;4995982;28;20306;-79
2022/03/21 09:40:50;;;;;;;16.27;10.73;;;;;;;11.75;52.36;100611.84;5001855;28;20199;-79
2022/03/21 09:43:20;;;;;;;15.60;10.53;;;;;;;12.16;52.15;100614.44;5004495;28;20750;-79
2022/03/21 09:45:49;;;;;;;17.23;11.87;;;;;;;11.91;52.66;100616.50;5055048;28;20189;-79
2022/03/21 09:48:20;;;;;;;15.97;10.93;;;;;;;11.54;52.97;100619.91;5048711;28;20204;-79
2022/03/21 09:50:52;;;;;;;15.50;11.27;;;;;;;11.99;51.64;100617.00;5046955;28;20206;-79
2022/03/21 09:53:23;;;;;;;17.20;10.80;;;;;;;12.06;51.83;100607.78;5046874;28;20193;-79
2022/03/21 09:55:52;;;;;;;13.80;10.47;;;;;;;12.55;51.60;100600.16;5048877;28;20197;-79
2022/03/21 09:58:21;;;;;;;16.60;11.13;;;;;;;12.77;50.95;100602.63;5017475;28;20319;-79
2022/03/21 10:00:50;;;;;;;13.67;10.53;;;;;;;13.07;49.34;100606.38;5049601;28;20189;-79
2022/03/21 10:03:18;;;;;;;16.37;11.90;;;;;;;13.11;48.79;100602.63;5046897;28;20213;-79
2022/03/21 10:05:50;;;;;;;15.93;10.73;;;;;;;12.83;49.53;100602.28;5018861;28;20207;-79
2022/03/21 10:08:21;;;;;;;14.87;10.93;;;;;;;12.69;48.85;100596.81;5034228;28;20247;-78
2022/03/21 10:11:07;;;;;;;17.83;11.67;;;;;;;12.90;48.93;100599.25;5008340;28;20199;-79
2022/03/21 10:13:37;;;;;;;15.77;11.37;;;;;;;13.05;48.09;100599.44;5037330;28;20206;-79
2022/03/21 10:16:11;;;;;;;13.37;10.93;;;;;;;13.18;48.47;100590.72;4997341;28;20206;-79
2022/03/21 10:18:56;;;;;;;14.60;11.00;;;;;;;13.33;47.40;100586.47;4999563;28;20202;-79
2022/03/21 10:21:26;;;;;;;14.73;11.23;;;;;;;13.35;48.18;100586.38;4999266;28;20191;-80
2022/03/21 10:24:02;;;;;;;18.30;11.37;;;;;;;13.23;48.39;100589.69;5002734;28;20276;-80
2022/03/21 10:26:33;;;;;;;16.07;11.73;;;;;;;13.84;47.44;100578.41;5000688;28;20203;-80
2022/03/21 10:29:11;;;;;;;18.83;12.30;;;;;;;14.10;46.26;100574.31;5039662;28;20191;-80
2022/03/21 10:31:41;;;;;;;15.07;11.20;;;;;;;13.79;46.66;100581.31;4998094;28;20205;-80
2022/03/21 10:34:13;;;;;;;17.50;11.43;;;;;;;13.81;45.88;100581.25;4998481;28;20309;-79
2022/03/21 10:37:00;;;;;;;16.37;11.77;;;;;;;13.60;47.00;100575.25;5021644;28;20199;-80
2022/03/21 10:39:30;;;;;;;15.57;11.40;;;;;;;13.92;47.64;100570.88;5056345;28;20195;-80
2022/03/21 10:42:02;;;;;;;18.67;11.93;;;;;;;14.08;46.64;100577.03;4982932;28;20239;-79
2022/03/21 10:44:33;;;;;;;15.90;11.30;;;;;;;14.47;45.38;100579.28;4991478;28;20214;-79
2022/03/21 10:47:06;;;;;;;15.53;11.73;;;;;;;14.32;44.98;100578.34;5016727;28;20191;-79
2022/03/21 10:49:37;;;;;;;15.13;11.97;;;;;;;13.94;45.73;100577.81;4992949;28;20224;-79
2022/03/21 10:52:08;;;;;;;15.17;11.87;;;;;;;13.72;47.81;100580.81;5015769;28;20206;-80
2022/03/21 10:54:50;;;;;;;15.67;12.77;;;;;;;14.27;45.72;100576.88;5015289;28;20206;-79
2022/03/21 10:57:36;;;;;;;17.00;12.67;;;;;;;13.91;45.28;100577.16;5023353;28;20213;-79
2022/03/21 11:00:19;;;;;;;16.27;12.13;;;;;;;13.74;47.98;100570.06;5016541;28;20201;-80
2022/03/21 11:02:51;;;;;;;17.47;12.03;;;;;;;14.67;45.13;100577.28;5016756;28;20202;-80
2022/03/21 11:05:24;;;;;;;17.57;12.07;;;;;;;14.96;45.17;100572.91;5016927;28;20191;-80
2022/03/21 11:07:53;;;;;;;17.00;12.47;;;;;;;15.28;45.40;100571.00;5016427;28;20187;-80
2022/03/21 11:10:26;;;;;;;16.23;12.40;;;;;;;15.51;43.53;100569.56;5015310;28;20221;-80
2022/03/21 11:13:01;;;;;;;16.73;12.83;;;;;;;15.50;43.20;100568.72;5018260;28;20222;-80
2022/03/21 11:15:35;;;;;;;17.17;12.50;;;;;;;15.60;43.36;100564.56;5003814;28;20203;-80
2022/03/21 11:18:05;;;;;;;17.80;13.53;;;;;;;15.86;41.87;100565.59;4998641;28;20195;-80
2022/03/21 11:20:34;;;;;;;19.03;12.30;;;;;;;16.01;42.54;100561.94;4991296;28;20194;-80
2022/03/21 11:23:04;;;;;;;18.67;12.73;;;;;;;16.12;42.26;100558.59;5001824;28;20200;-80
2022/03/21 11:25:34;;;;;;;15.67;12.07;;;;;;;15.87;43.52;100561.97;4997490;28;20203;-80
2022/03/21 11:28:37;;;;;;;17.87;12.80;;;;;;;16.37;43.14;100554.31;5001789;28;20192;-80
2022/03/21 11:31:26;;;;;;;18.33;13.30;;;;;;;16.83;41.79;100557.50;5001505;28;20207;-80
2022/03/21 11:34:08;;;;;;;16.37;12.60;;;;;;;16.63;41.73;100553.44;4998593;28;20278;-80
2022/03/21 11:36:51;;;;;;;18.70;13.73;;;;;;;16.76;41.75;100558.88;4999090;28;20199;-80
2022/03/21 11:39:23;;;;;;;17.23;13.63;;;;;;;16.59;41.01;100557.28;4999154;28;20248;-79
2022/03/21 11:42:00;;;;;;;19.17;13.97;;;;;;;16.17;42.61;100550.25;5000668;28;20235;-79
2022/03/21 11:44:30;;;;;;;21.80;14.43;;;;;;;16.42;41.41;100554.88;4990623;28;20215;-80
2022/03/21 11:47:22;;;;;;;16.93;13.60;;;;;;;16.01;42.89;100547.72;4996899;28;20187;-80
2022/03/21 11:49:51;;;;;;;19.20;13.40;;;;;;;16.03;40.86;100554.69;4999263;28;20275;-80
2022/03/21 11:52:22;;;;;;;19.00;13.77;;;;;;;15.14;43.51;100539.78;4999877;28;20216;-79